Weather observations for the past three days for
Albion Municipal Airport
Metric (Imperial)
Date Time (cdt) Wind (kph) Vis. (km) Weather Sky Cond. Temperature (ºC) Relative Humidity Wind Chill (°C) Heat Index (°C) Pressure Precipitation (cm)
Air Dwpt 6 hour altimeter (cm) sea level (mb) 1 hr 3 hr 6 hr
Max. Min.
04 20:55 N 22 G 31 16.09 Mostly Cloudy SCT065 SCT075 BKN090 13 1 44% 75.67 0.0
04 20:35 N 17 16.09 Partly Cloudy SCT120 13.5 0 40% 75.64 0.0
04 20:15 N 19 G 30 16.09 Partly Cloudy SCT120 14 0 39% 75.67 0.0
04 19:55 N 13 16.09 Fair CLR 14.1 0.5 40% 75.67 0.0
04 19:35 N 24 G 31 16.09 Partly Cloudy SCT120 14.7 0.2 37% 75.59 0.0
04 19:15 N 24 G 35 16.09 Fair CLR 15 0.1 36% 75.62 0.0
04 18:55 N 19 G 33 16.09 Fair CLR 15.5 1.4 21.4 15.4 39% 75.62 0.0
04 18:35 N 24 G 37 16.09 Fair CLR 15.6 1.1 38% 75.62 0.0
04 18:15 N 30 G 39 16.09 Fair CLR 17.2 0.9 33% 75.62 0.0
04 17:55 N 24 G 39 16.09 Partly Cloudy SCT120 18.1 0.8 31% 75.57 0.0
04 17:35 N 24 G 44 16.09 Fair CLR 18 0.6 31% 75.51 0.0
04 17:15 N 30 G 39 16.09 Fair CLR 19.9 1.3 29% 75.49 0.0
04 16:55 N 30 G 48 16.09 Fair CLR 20.1 1.5 29% 75.46 0.0
04 16:35 N 24 G 39 16.09 Fair CLR 20.5 1.7 29% 75.46 0.0
04 16:15 N 30 G 41 16.09 Fair CLR 20.4 1.9 29% 75.44 0.0
04 15:55 N 33 G 44 16.09 Fair and Breezy CLR 20.5 2.7 31% 75.44 0.0
04 15:35 N 28 G 43 16.09 Fair CLR 21 1.9 28% 75.46 0.0
04 15:15 N 28 G 37 16.09 Fair CLR 21.3 2.7 29% 75.44 0.0
04 14:55 N 28 G 37 16.09 Fair CLR 20.9 2.2 29% 75.44 0.0
04 14:35 N 19 G 43 16.09 Fair CLR 20.7 1.8 29% 75.44 0.0
04 14:15 N 20 G 37 16.09 Fair CLR 20.9 1.7 28% 75.44 0.0
04 13:55 N 30 G 39 16.09 Fair CLR 21.1 1.6 28% 75.41 0.0
04 13:35 N 28 G 37 16.09 Fair CLR 20.9 1.7 28% 75.41 0.0
04 13:15 N 30 G 43 16.09 Fair CLR 21 1.6 28% 75.41 0.0
04 12:55 N 22 G 39 16.09 Fair CLR 20.5 2.5 22 9.3 30% 75.39 0.0
04 12:35 N 26 G 35 16.09 Fair CLR 20.3 4 34% 75.41 0.0
04 12:15 N 24 G 39 16.09 Fair CLR 20.4 5.7 38% 75.39 0.0
04 11:55 N 22 16.09 Fair CLR 20 6.1 40% 75.39 0.0
04 11:35 N 30 G 39 16.09 Fair CLR 19.8 6.4 42% 75.39 0.0
04 11:15 N 28 G 43 16.09 Fair CLR 19.9 7 43% 75.36 0.0
04 10:55 N 24 G 43 16.09 Fair CLR 20.1 6.5 41% 75.34 0.0
04 10:35 NW 28 16.09 Fair CLR 20.9 6.7 40% 75.31 0.0
04 10:15 N 37 G 46 16.09 Fair and Breezy CLR 21.5 5.6 36% 75.29 0.0
04 09:55 W 24 G 31 16.09 Fair CLR 21.7 4.8 33% 75.26 0.0
04 09:35 W 22 G 30 16.09 Fair CLR 20.5 3.9 34% 75.23 0.0
04 09:15 W 13 16.09 Fair CLR 19.5 5 39% 75.23 0.0
04 08:55 W 7 16.09 Fair CLR 18.8 5 40% 75.26 0.0
04 08:35 Calm 16.09 Fair CLR 17.3 5.6 46% 75.26 0.0
04 08:15 Calm 16.09 Fair CLR 15.5 5.4 51% 75.26 0.0
04 07:55 NW 6 16.09 Fair CLR 13.8 5.1 56% 75.26 0.0
04 07:35 NW 6 16.09 Fair CLR 11.8 4.6 62% 75.26 0.0
04 06:55 N 9 16.09 Fair CLR 9.8 3.2 12 4.3 64% 9 75.26 0.0
04 06:35 Calm 16.09 Fair CLR 6.5 2.6 76% 75.26 0.0
04 06:15 Calm 16.09 Fair CLR 4.9 3 88% 75.29 0.0
04 05:55 Calm 16.09 Fair CLR 4.7 2.8 88% 75.29 0.0
04 05:35 NW 9 16.09 Fair CLR 5 3 87% 3 75.31 0.0
04 05:15 NW 9 16.09 Fair CLR 5.8 3.2 84% 4 75.31 0.0
04 04:55 Calm 16.09 Fair CLR 5.2 3.1 86% 75.34 0.0
04 04:35 NW 6 16.09 Fair CLR 6.5 3.3 80% 75.34 0.0
04 04:15 NW 7 16.09 Fair CLR 8.8 3.5 70% 8 75.31 0.0
04 03:55 W 9 16.09 Partly Cloudy SCT120 11 2.7 57% 75.31 0.0
04 03:35 NW 9 16.09 Partly Cloudy SCT120 10 3 62% 9 75.34 0.0
04 03:15 Calm 16.09 Fair CLR 11 2.5 56% 75.36 0.0
04 02:55 NW 7 16.09 Fair CLR 8.5 3.1 69% 8 75.36 0.0
04 02:35 Calm 16.09 Fair CLR 8.8 3.3 69% 75.36 0.0
04 02:15 Calm 16.09 Fair CLR 8.6 4.2 74% 75.36 0.0
04 01:55 Calm 16.09 Fair CLR 11.8 2.6 54% 75.41 0.0
04 01:35 Calm 16.09 Fair CLR 8.3 4.8 79% 75.44 0.0
04 01:15 Calm 16.09 Fair CLR 8.5 4.7 77% 75.46 0.0
04 00:55 Calm 16.09 Fair CLR 8 4.6 22.5 7.9 79% 75.46 0.0
04 00:35 Calm 16.09 Fair CLR 8.3 4.4 77% 75.46 0.0
04 00:15 Calm 16.09 Fair CLR 8.4 4.6 77% 75.51 0.0
03 23:55 Calm 16.09 Fair CLR 9.5 4.6 72% 75.54 0.0
03 23:35 Calm 16.09 Fair CLR 8.8 4.6 75% 75.54 0.0
03 23:15 Calm 16.09 Fair CLR 9.6 4.4 70% 75.57 0.0
03 22:55 Calm 16.09 Fair CLR 11.9 3.9 58% 75.59 0.0
03 22:35 NW 6 16.09 Fair CLR 11.7 4.5 62% 75.59 0.0
03 22:15 Calm 16.09 Fair CLR 11.2 5.3 67% 75.59 0.0
03 21:55 Calm 16.09 Fair CLR 13.5 3.9 53% 75.59 0.0
03 21:35 Calm 16.09 Fair CLR 13 4.5 57% 75.59 0.0
03 21:15 Calm 16.09 Fair CLR 16.7 2.9 40% 75.59 0.0
03 20:55 Calm 16.09 Fair CLR 16.4 4.9 47% 75.62 0.0
03 20:35 Calm 16.09 Fair CLR 17.8 3.6 39% 75.62 0.0
03 20:15 Calm 16.09 Fair CLR 18.7 5.1 41% 75.64 0.0
03 19:55 Calm 16.09 Fair CLR 19.9 4 35% 75.67 0.0
03 19:35 N 6 16.09 Fair CLR 20.7 3.8 33% 75.67 0.0
03 19:15 Calm 16.09 Fair CLR 22.1 2.6 28% 75.67 0.0
03 18:55 Calm 16.09 Fair CLR 20.8 6.2 22.9 20.3 39% 75.69 0.0
03 18:35 Calm 16.09 Fair CLR 22 3.1 29% 75.72 0.0
03 18:15 NW 9 16.09 Fair CLR 22.1 3.6 30% 75.72 0.0
03 17:55 NW 7 16.09 Fair CLR 22.5 2.5 27% 75.72 0.0
03 17:35 Calm 16.09 Fair CLR 22.5 1.8 26% 75.72 0.0
03 17:15 NW 19 G 31 16.09 Fair CLR 22.6 2.8 27% 75.74 0.0
03 16:55 N 13 16.09 Fair CLR 22.5 3 28% 75.74 0.0
03 16:35 NE 7 16.09 Fair CLR 22.6 1.7 25% 75.77 0.0
03 16:15 W 6 16.09 Fair CLR 22.4 2.5 27% 75.79 0.0
03 15:55 NW 7 16.09 Fair CLR 22.4 2 26% 75.82 0.0
03 15:35 N 9 16.09 Fair CLR 21.8 0.8 25% 75.84 0.0
03 15:15 N 6 16.09 Fair CLR 21.9 1 25% 75.87 0.0
03 14:55 N 11 16.09 Fair CLR 22.1 2.6 28% 75.87 0.0
03 14:35 Calm 16.09 Fair CLR 21.6 1.8 27% 75.9 0.0
03 14:15 N 11 16.09 Fair CLR 21.7 2.5 28% 75.92 0.0
03 13:55 NW 13 16.09 Fair CLR 21.2 2.7 30% 75.92 0.0
03 13:35 NW 9 G 26 16.09 Fair CLR 21 2.7 30% 75.92 0.0
03 13:15 N 9 16.09 Fair CLR 21 2 29% 75.95 0.0
03 12:55 NW 15 16.09 Fair CLR 20.4 3.2 20.5 7.5 32% 75.97 0.0
03 12:35 N 15 16.09 Fair CLR 20.5 2.9 31% 76 0.0
03 12:15 N 11 16.09 Fair CLR 19.8 2.5 32% 76.02 0.0
03 11:55 NW 6 16.09 Fair CLR 19.5 3 34% 76.02 0.0
03 11:35 N 11 16.09 Fair CLR 19.2 2.7 34% 76.02 0.0
03 11:15 NE 7 16.09 Fair CLR 18.6 3.8 38% 76.02 0.0
03 10:35 NE 7 16.09 Fair CLR 18.1 3.3 38% 76.02 0.0
03 10:15 NE 9 16.09 Fair CLR 17.4 2.6 37% 76.02 0.0
03 09:55 N 13 16.09 Fair CLR 17.2 3.2 39% 76.02 0.0
03 09:35 N 13 16.09 Fair CLR 16.3 3.6 43% 76.05 0.0
03 09:15 N 11 16.09 Fair CLR 15.6 4 46% 76 0.0
03 08:55 N 20 G 26 16.09 Fair CLR 14.7 3.3 47% 75.97 0.0
03 08:35 N 20 16.09 Fair CLR 14 3.7 50% 75.97 0.0
03 08:15 NW 11 16.09 Fair CLR 12.6 3.8 55% 75.95 0.0
03 07:55 Calm 16.09 Fair CLR 10.9 3 58% 75.92 0.0
03 07:35 W 6 16.09 Fair CLR 9.6 2.9 63% 75.92 0.0
03 07:15 Calm 16.09 Fair CLR 8.3 1.9 64% 75.87 0.0
03 06:55 Calm 16.09 Fair CLR 7.2 1.8 14.1 7.2 69% 75.84 0.0
03 06:35 N 9 16.09 Fair CLR 8.7 2 63% 7 75.84 0.0
03 06:15 Calm 16.09 Fair CLR 9 2.3 63% 75.84 0.0
03 05:35 N 7 16.09 Fair CLR 10.6 1.2 53% 75.87 0.0
03 05:15 N 13 16.09 Fair CLR 10.6 1 52% 75.87 0.0
03 04:55 Calm 16.09 Fair CLR 8.6 1.5 61% 75.84 0.0
03 04:35 N 6 16.09 Fair CLR 10.2 1.4 55% 75.84 0.0
03 04:15 NW 7 16.09 Fair CLR 10.8 1.6 53% 75.84 0.0
03 03:55 N 11 16.09 Fair CLR 10.6 1.5 54% 75.9 0.0
03 03:35 Calm 16.09 Fair CLR 10.8 1.3 52% 75.87 0.0
03 03:15 NW 7 16.09 Fair CLR 11 1.5 52% 75.9 0.0
03 02:55 NW 17 G 26 16.09 Fair CLR 11.9 1.5 49% 75.87 0.0
03 02:35 SW 22 G 31 16.09 Fair CLR 12.5 1.3 47% 75.82 0.0
03 02:15 SW 20 16.09 Fair CLR 12.4 1.3 47% 75.82 0.0
03 01:55 SW 15 16.09 Fair CLR 12.3 1.5 48% 75.84 0.0
03 01:35 SW 20 G 35 16.09 Fair CLR 13.2 1.2 44% 75.84 0.0
03 01:15 SW 22 16.09 Fair CLR 13.5 1 43% 75.84 0.0
03 00:55 SW 26 G 31 16.09 Fair CLR 14 0.7 20.8 12.2 41% 75.84 0.0
03 00:35 SW 20 G 28 16.09 Fair CLR 14.2 0.5 39% 75.84 0.0
03 00:15 SW 19 16.09 Fair CLR 14 0.6 40% 75.84 0.0
02 23:55 SW 22 16.09 Fair CLR 14.5 0.4 38% 75.84 0.0
02 23:35 SW 19 G 28 16.09 Fair CLR 15 0.1 36% 75.84 0.0
02 23:15 S 17 16.09 Fair CLR 14.3 0.2 38% 75.87 0.0
02 22:55 S 7 16.09 Fair CLR 12.9 0.8 44% 75.87 0.0
02 22:35 S 13 16.09 Fair CLR 13.9 0.4 40% 75.9 0.0
02 22:15 S 15 16.09 Fair CLR 14.2 0.5 39% 75.9 0.0
02 21:55 S 9 16.09 Fair CLR 13.6 0.6 41% 75.92 0.0
02 21:35 S 9 16.09 Fair CLR 12.6 0.7 44% 75.92 0.0
02 21:15 S 9 16.09 Fair CLR 13 0.5 43% 75.92 0.0
02 20:55 S 9 16.09 Fair CLR 14.4 0.4 39% 75.92 0.0
02 20:35 S 9 16.09 Fair CLR 16.3 0.3 34% 75.95 0.0
02 20:15 S 11 16.09 Fair CLR 17.7 0 30% 75.95 0.0
02 19:55 S 15 16.09 Fair CLR 19.3 -0.2 27% 75.97 0.0
02 19:35 SW 20 16.09 Fair CLR 20 -0.4 26% 75.97 0.0
02 19:15 SW 22 G 30 16.09 Fair CLR 20.6 -1.1 23% 76 0.0
02 18:55 SW 20 G 30 16.09 Fair CLR 21 -1.3 21.2 16.9 22% 76.02 0.0
02 18:35 SW 17 G 30 16.09 Fair CLR 21 -0.3 24% 76.07 0.0
02 18:15 SW 15 16.09 Fair CLR 21.1 -0.9 23% 76.07 0.0
02 17:55 SW 22 G 30 16.09 Fair CLR 21.1 -1.3 22% 76.1 0.0
02 17:35 SW 20 G 30 16.09 Fair CLR 21 -1.7 22% 76.1 0.0
02 17:15 SW 17 G 33 16.09 Fair CLR 20.7 -1.9 22% 76.12 0.0
02 16:55 W 13 16.09 Fair CLR 20.3 -3.2 20% 76.15 0.0
02 16:35 W 13 G 26 16.09 Fair CLR 20.3 -3.5 20% 76.17 0.0
02 16:15 SW 20 G 28 16.09 Fair CLR 20.1 -4.5 19% 76.23 0.0
02 15:55 SW 19 G 28 16.09 Fair CLR 19.9 -3.5 20% 76.25 0.0
02 15:35 SW 15 16.09 Fair CLR 19.7 -3.5 21% 76.28 0.0
02 15:15 SW 11 16.09 Fair CLR 18.9 -4.9 20% 76.3 0.0
02 14:35 SW 17 G 31 16.09 Fair CLR 18.8 -4.8 20% 76.35 0.0
02 14:15 SW 19 G 26 16.09 Fair CLR 18.5 -3.9 22% 76.38 0.0
02 13:55 SW 19 16.09 Fair CLR 18 -4.2 22% 76.4 0.0
02 13:35 W 9 16.09 Fair CLR 17.6 -4.4 22% 76.43 0.0
02 13:15 S 6 16.09 Fair CLR 17.2 -3.9 24% 76.43 0.0
02 12:55 W 15 16.09 Fair CLR 17.2 -2.4 17.2 -2 26% 76.48 0.0
02 12:35 W 13 16.09 Fair CLR 16.9 -2.6 26% 76.48 0.0
02 12:15 W 13 16.09 Fair CLR 16.1 -3.1 27% 76.5 0.0
02 11:55 NW 19 16.09 Fair CLR 16 -3.1 27% 76.5 0.0
02 11:35 W 11 16.09 Fair CLR 15.3 -1.8 31% 76.53 0.0
02 11:15 W 9 16.09 Fair CLR 15 -2.4 30% 76.58 0.0
02 10:55 W 11 16.09 Fair CLR 14.4 -2.1 32% 76.58 0.0
02 10:35 NW 13 16.09 Fair CLR 14 -0.4 37% 76.58 0.0
02 10:15 W 13 16.09 Fair CLR 12.7 -0.5 40% 76.58 0.0
02 09:55 W 15 16.09 Fair CLR 11.6 -1 42% 76.61 0.0
02 09:35 W 7 16.09 Fair CLR 10.9 -0.5 46% 76.61 0.0
02 09:15 W 9 16.09 Fair CLR 9.6 -0.9 48% 9 76.61 0.0
02 08:55 W 7 16.09 Fair CLR 8.3 -0.4 55% 7 76.63 0.0
02 08:35 Calm 16.09 Fair CLR 5.2 -0.3 68% 76.63 0.0
02 08:15 Calm 16.09 Fair CLR 3.8 -0.7 73% 76.63 0.0
02 07:55 Calm 16.09 Fair CLR 0.7 -1.4 86% 76.63 0.0
02 07:35 Calm 16.09 Fair CLR -0.5 -2.6 86% 76.63 0.0
02 07:15 Calm 16.09 Fair CLR -1.6 -3.7 86% 76.63 0.0
02 06:55 Calm 16.09 Fair CLR -2.4 -4.5 1 -3 86% 76.63 0.0
02 06:35 Calm 16.09 Fair CLR -2.8 -4.6 88% 76.63 0.0
02 06:15 Calm 16.09 Fair CLR -2.3 -3.8 90% 76.63 0.0
02 05:55 Calm 16.09 Fair CLR -2.2 -4.1 87% 76.63 0.0
02 05:35 Calm 16.09 Fair CLR -2.1 -3.9 88% 76.63 0.0
02 05:15 Calm 16.09 Fair CLR -2.3 -4.2 87% 76.63 0.0
02 04:55 Calm 16.09 Fair CLR -1.7 -3.9 85% 76.63 0.0
02 04:35 Calm 16.09 Fair CLR -1.6 -3.6 86% 76.63 0.0
02 04:15 NW 6 16.09 Fair CLR -2.1 -3.8 88% 76.63 0.0
02 03:55 Calm 16.09 Fair CLR -1.1 -3.4 85% 76.63 0.0
02 03:35 NW 6 16.09 Fair CLR -0.9 -3 86% 76.63 0.0
02 03:15 Calm 16.09 Fair CLR -1.2 -3.2 86% 76.63 0.0
02 02:55 NW 6 16.09 Fair CLR -0.9 -3.1 85% 76.63 0.0
02 02:15 NW 7 16.09 Fair CLR -0.8 -2.9 86% -3 76.63 0.0
02 01:55 NW 7 16.09 Fair CLR -0.5 -3 83% -3 76.63 0.0
02 01:35 NW 7 16.09 Fair CLR -0.3 -3 82% -3 76.63 0.0
02 01:15 NW 6 16.09 Fair CLR 0.9 -2.6 78% 76.63 0.0
02 00:55 Calm 16.09 Fair CLR 0.7 -2.8 13 0.2 78% 76.63 0.0
02 00:35 Calm 16.09 Fair CLR 1.8 -2.9 71% 76.63 0.0
02 00:15 Calm 16.09 Fair CLR 1 -2.2 79% 76.63 0.0
01 23:55 Calm 16.09 Fair CLR 1.2 -2.2 78% 76.63 0.0
01 23:35 Calm 16.09 Fair CLR 1.5 -2.4 76% 76.61 0.0
01 23:15 Calm 16.09 Fair CLR 1.6 -2.5 74% 76.61 0.0
01 22:55 NE 9 16.09 Fair CLR 3.9 -3 61% 2 76.61 0.0
01 22:35 NE 7 16.09 Fair CLR 4.4 -2.8 60% 3 76.58 0.0
01 22:15 NE 11 16.09 Fair CLR 5.2 -3 56% 3 76.58 0.0
01 21:55 NE 9 16.09 Fair CLR 5.1 -2.7 57% 3 76.56 0.0
01 21:35 NE 7 16.09 Fair CLR 6.3 -3.2 51% 5 76.53 0.0
01 21:15 NE 11 16.09 Fair CLR 6.2 -2.9 53% 4 76.53 0.0
Date Time (cdt) Wind (kph) Vis. (km) Weather Sky Cond. Air Dwpt Max. Min. Relative Humidity Wind Chill (°C) Heat Index (°C) altimeter (cm) sea level (mb) 1 hr 3 hr 6 hr
6 hour
Temperature (ºC) Pressure Precipitation (cm)